sensor_id;sensor_type;location;lat;lon;timestamp;P1;durP1;ratioP1;P2;durP2;ratioP2
7471;SDS011;3777;48.722;8.110;2022-12-29T00:01:31;4.03;;;2.00;;
7471;SDS011;3777;48.722;8.110;2022-12-29T00:03:59;3.70;;;2.50;;
7471;SDS011;3777;48.722;8.110;2022-12-29T00:06:27;2.33;;;1.90;;
7471;SDS011;3777;48.722;8.110;2022-12-29T00:08:54;3.87;;;2.33;;
7471;SDS011;3777;48.722;8.110;2022-12-29T00:11:21;4.27;;;2.17;;
7471;SDS011;3777;48.722;8.110;2022-12-29T00:13:50;3.43;;;2.10;;
7471;SDS011;3777;48.722;8.110;2022-12-29T00:16:35;3.03;;;2.00;;
7471;SDS011;3777;48.722;8.110;2022-12-29T00:19:02;3.53;;;2.00;;
7471;SDS011;3777;48.722;8.110;2022-12-29T00:21:31;3.97;;;1.90;;
7471;SDS011;3777;48.722;8.110;2022-12-29T00:24:16;4.90;;;1.90;;
7471;SDS011;3777;48.722;8.110;2022-12-29T00:27:09;5.03;;;2.30;;
7471;SDS011;3777;48.722;8.110;2022-12-29T00:29:55;2.43;;;1.73;;
7471;SDS011;3777;48.722;8.110;2022-12-29T00:32:40;3.73;;;2.10;;
7471;SDS011;3777;48.722;8.110;2022-12-29T00:35:25;3.43;;;2.10;;
7471;SDS011;3777;48.722;8.110;2022-12-29T00:37:55;2.83;;;1.90;;
7471;SDS011;3777;48.722;8.110;2022-12-29T00:40:48;2.20;;;2.00;;
7471;SDS011;3777;48.722;8.110;2022-12-29T00:43:32;4.67;;;2.00;;
7471;SDS011;3777;48.722;8.110;2022-12-29T00:46:16;2.80;;;1.90;;
7471;SDS011;3777;48.722;8.110;2022-12-29T00:48:43;2.40;;;1.83;;
7471;SDS011;3777;48.722;8.110;2022-12-29T00:51:28;3.97;;;1.90;;
7471;SDS011;3777;48.722;8.110;2022-12-29T00:53:56;2.10;;;1.80;;
7471;SDS011;3777;48.722;8.110;2022-12-29T00:56:23;2.33;;;1.60;;
7471;SDS011;3777;48.722;8.110;2022-12-29T00:58:50;3.17;;;1.97;;
7471;SDS011;3777;48.722;8.110;2022-12-29T01:01:17;3.20;;;2.00;;
7471;SDS011;3777;48.722;8.110;2022-12-29T01:03:44;3.50;;;1.97;;
7471;SDS011;3777;48.722;8.110;2022-12-29T01:06:11;3.03;;;1.80;;
7471;SDS011;3777;48.722;8.110;2022-12-29T01:08:38;2.83;;;1.80;;
7471;SDS011;3777;48.722;8.110;2022-12-29T01:11:07;3.03;;;1.70;;
7471;SDS011;3777;48.722;8.110;2022-12-29T01:13:34;3.30;;;2.00;;
7471;SDS011;3777;48.722;8.110;2022-12-29T01:16:02;3.90;;;2.33;;
7471;SDS011;3777;48.722;8.110;2022-12-29T01:18:29;2.67;;;2.10;;
7471;SDS011;3777;48.722;8.110;2022-12-29T01:20:59;3.23;;;1.90;;
7471;SDS011;3777;48.722;8.110;2022-12-29T01:23:27;2.73;;;2.13;;
7471;SDS011;3777;48.722;8.110;2022-12-29T01:25:54;3.50;;;2.03;;
7471;SDS011;3777;48.722;8.110;2022-12-29T01:28:23;3.07;;;2.10;;
7471;SDS011;3777;48.722;8.110;2022-12-29T01:30:50;4.50;;;2.07;;
7471;SDS011;3777;48.722;8.110;2022-12-29T01:33:17;2.90;;;2.07;;
7471;SDS011;3777;48.722;8.110;2022-12-29T01:35:44;4.20;;;1.87;;
7471;SDS011;3777;48.722;8.110;2022-12-29T01:38:11;3.03;;;1.93;;
7471;SDS011;3777;48.722;8.110;2022-12-29T01:40:44;3.77;;;2.10;;
7471;SDS011;3777;48.722;8.110;2022-12-29T01:43:12;3.07;;;1.80;;
7471;SDS011;3777;48.722;8.110;2022-12-29T01:45:44;3.50;;;1.93;;
7471;SDS011;3777;48.722;8.110;2022-12-29T01:48:14;2.27;;;1.90;;
7471;SDS011;3777;48.722;8.110;2022-12-29T01:50:43;2.40;;;1.97;;
7471;SDS011;3777;48.722;8.110;2022-12-29T01:53:16;3.17;;;2.17;;
7471;SDS011;3777;48.722;8.110;2022-12-29T01:55:46;4.17;;;2.10;;
7471;SDS011;3777;48.722;8.110;2022-12-29T01:58:17;2.87;;;2.00;;
7471;SDS011;3777;48.722;8.110;2022-12-29T02:00:48;3.03;;;1.93;;
7471;SDS011;3777;48.722;8.110;2022-12-29T02:03:15;3.13;;;2.10;;
7471;SDS011;3777;48.722;8.110;2022-12-29T02:05:46;2.73;;;2.10;;
7471;SDS011;3777;48.722;8.110;2022-12-29T02:08:17;4.40;;;1.90;;
7471;SDS011;3777;48.722;8.110;2022-12-29T02:10:45;4.17;;;2.03;;
7471;SDS011;3777;48.722;8.110;2022-12-29T02:13:14;3.70;;;2.20;;
7471;SDS011;3777;48.722;8.110;2022-12-29T02:15:45;4.87;;;2.43;;
7471;SDS011;3777;48.722;8.110;2022-12-29T02:18:22;2.47;;;2.17;;
7471;SDS011;3777;48.722;8.110;2022-12-29T02:24:07;2.73;;;2.10;;
7471;SDS011;3777;48.722;8.110;2022-12-29T02:26:49;2.20;;;1.83;;
7471;SDS011;3777;48.722;8.110;2022-12-29T02:29:36;2.97;;;1.90;;
7471;SDS011;3777;48.722;8.110;2022-12-29T02:32:27;1.93;;;1.63;;
7471;SDS011;3777;48.722;8.110;2022-12-29T02:35:01;4.60;;;1.93;;
7471;SDS011;3777;48.722;8.110;2022-12-29T02:37:37;2.93;;;2.10;;
7471;SDS011;3777;48.722;8.110;2022-12-29T02:40:12;5.33;;;2.13;;
7471;SDS011;3777;48.722;8.110;2022-12-29T02:42:46;3.67;;;1.87;;
7471;SDS011;3777;48.722;8.110;2022-12-29T02:45:18;2.40;;;2.10;;
7471;SDS011;3777;48.722;8.110;2022-12-29T02:47:51;2.27;;;1.73;;
7471;SDS011;3777;48.722;8.110;2022-12-29T02:50:25;2.70;;;1.80;;
7471;SDS011;3777;48.722;8.110;2022-12-29T02:52:57;2.43;;;2.00;;
7471;SDS011;3777;48.722;8.110;2022-12-29T02:55:26;3.90;;;2.00;;
7471;SDS011;3777;48.722;8.110;2022-12-29T02:58:06;2.50;;;1.83;;
7471;SDS011;3777;48.722;8.110;2022-12-29T03:00:43;3.03;;;1.97;;
7471;SDS011;3777;48.722;8.110;2022-12-29T03:03:25;4.27;;;1.80;;
7471;SDS011;3777;48.722;8.110;2022-12-29T03:06:06;3.20;;;1.90;;
7471;SDS011;3777;48.722;8.110;2022-12-29T03:08:49;4.17;;;1.87;;
7471;SDS011;3777;48.722;8.110;2022-12-29T03:11:26;3.27;;;2.00;;
7471;SDS011;3777;48.722;8.110;2022-12-29T03:14:17;3.23;;;1.80;;
7471;SDS011;3777;48.722;8.110;2022-12-29T03:17:15;3.80;;;2.10;;
7471;SDS011;3777;48.722;8.110;2022-12-29T03:19:52;3.10;;;2.00;;
7471;SDS011;3777;48.722;8.110;2022-12-29T03:22:26;3.17;;;1.97;;
7471;SDS011;3777;48.722;8.110;2022-12-29T03:24:57;3.23;;;1.80;;
7471;SDS011;3777;48.722;8.110;2022-12-29T03:27:27;3.20;;;1.80;;
7471;SDS011;3777;48.722;8.110;2022-12-29T03:29:57;2.77;;;2.20;;
7471;SDS011;3777;48.722;8.110;2022-12-29T03:32:28;4.13;;;2.13;;
7471;SDS011;3777;48.722;8.110;2022-12-29T03:35:00;4.13;;;2.03;;
7471;SDS011;3777;48.722;8.110;2022-12-29T03:37:30;3.03;;;2.00;;
7471;SDS011;3777;48.722;8.110;2022-12-29T03:40:01;3.00;;;1.90;;
7471;SDS011;3777;48.722;8.110;2022-12-29T03:42:30;3.93;;;1.90;;
7471;SDS011;3777;48.722;8.110;2022-12-29T03:45:00;4.50;;;2.23;;
7471;SDS011;3777;48.722;8.110;2022-12-29T03:47:27;2.87;;;1.93;;
7471;SDS011;3777;48.722;8.110;2022-12-29T03:49:54;2.93;;;2.30;;
7471;SDS011;3777;48.722;8.110;2022-12-29T03:52:22;4.17;;;2.07;;
7471;SDS011;3777;48.722;8.110;2022-12-29T03:54:49;4.07;;;1.90;;
7471;SDS011;3777;48.722;8.110;2022-12-29T03:57:16;3.17;;;2.10;;
7471;SDS011;3777;48.722;8.110;2022-12-29T03:59:43;4.83;;;1.97;;
7471;SDS011;3777;48.722;8.110;2022-12-29T04:02:10;4.73;;;2.47;;
7471;SDS011;3777;48.722;8.110;2022-12-29T04:04:37;3.10;;;2.27;;
7471;SDS011;3777;48.722;8.110;2022-12-29T04:07:04;2.90;;;2.20;;
7471;SDS011;3777;48.722;8.110;2022-12-29T04:09:32;3.93;;;2.30;;
7471;SDS011;3777;48.722;8.110;2022-12-29T04:11:59;3.20;;;2.20;;
7471;SDS011;3777;48.722;8.110;2022-12-29T04:14:26;3.03;;;2.30;;
7471;SDS011;3777;48.722;8.110;2022-12-29T04:16:53;2.37;;;2.13;;
7471;SDS011;3777;48.722;8.110;2022-12-29T04:19:20;3.47;;;2.27;;
7471;SDS011;3777;48.722;8.110;2022-12-29T04:21:47;3.20;;;2.47;;
7471;SDS011;3777;48.722;8.110;2022-12-29T04:24:13;5.60;;;2.50;;
7471;SDS011;3777;48.722;8.110;2022-12-29T04:26:41;2.57;;;2.10;;
7471;SDS011;3777;48.722;8.110;2022-12-29T04:29:08;2.80;;;2.00;;
7471;SDS011;3777;48.722;8.110;2022-12-29T04:31:35;2.93;;;2.37;;
7471;SDS011;3777;48.722;8.110;2022-12-29T04:34:02;4.33;;;2.40;;
7471;SDS011;3777;48.722;8.110;2022-12-29T04:36:29;2.53;;;2.30;;
7471;SDS011;3777;48.722;8.110;2022-12-29T04:38:56;3.40;;;2.20;;
7471;SDS011;3777;48.722;8.110;2022-12-29T04:41:23;4.33;;;2.40;;
7471;SDS011;3777;48.722;8.110;2022-12-29T04:43:51;3.83;;;2.60;;
7471;SDS011;3777;48.722;8.110;2022-12-29T04:46:18;3.70;;;2.53;;
7471;SDS011;3777;48.722;8.110;2022-12-29T04:48:45;5.50;;;2.70;;
7471;SDS011;3777;48.722;8.110;2022-12-29T04:51:12;3.93;;;2.57;;
7471;SDS011;3777;48.722;8.110;2022-12-29T04:53:39;3.43;;;2.33;;
7471;SDS011;3777;48.722;8.110;2022-12-29T04:56:06;5.60;;;2.50;;
7471;SDS011;3777;48.722;8.110;2022-12-29T04:58:34;3.93;;;2.60;;
7471;SDS011;3777;48.722;8.110;2022-12-29T05:01:02;4.30;;;2.50;;
7471;SDS011;3777;48.722;8.110;2022-12-29T05:03:29;2.83;;;2.57;;
7471;SDS011;3777;48.722;8.110;2022-12-29T05:05:56;4.13;;;2.37;;
7471;SDS011;3777;48.722;8.110;2022-12-29T05:08:24;3.50;;;2.47;;
7471;SDS011;3777;48.722;8.110;2022-12-29T05:10:50;4.07;;;2.43;;
7471;SDS011;3777;48.722;8.110;2022-12-29T05:13:18;3.13;;;2.83;;
7471;SDS011;3777;48.722;8.110;2022-12-29T05:15:49;3.77;;;2.43;;
7471;SDS011;3777;48.722;8.110;2022-12-29T05:18:18;4.13;;;3.00;;
7471;SDS011;3777;48.722;8.110;2022-12-29T05:20:46;3.20;;;2.50;;
7471;SDS011;3777;48.722;8.110;2022-12-29T05:23:13;2.83;;;2.40;;
7471;SDS011;3777;48.722;8.110;2022-12-29T05:25:42;3.00;;;2.60;;
7471;SDS011;3777;48.722;8.110;2022-12-29T05:28:11;2.83;;;2.40;;
7471;SDS011;3777;48.722;8.110;2022-12-29T05:30:38;4.87;;;2.60;;
7471;SDS011;3777;48.722;8.110;2022-12-29T05:33:05;2.37;;;2.10;;
7471;SDS011;3777;48.722;8.110;2022-12-29T05:35:33;4.40;;;2.70;;
7471;SDS011;3777;48.722;8.110;2022-12-29T05:38:00;4.23;;;2.60;;
7471;SDS011;3777;48.722;8.110;2022-12-29T05:40:27;3.97;;;2.40;;
7471;SDS011;3777;48.722;8.110;2022-12-29T05:42:54;2.77;;;2.40;;
7471;SDS011;3777;48.722;8.110;2022-12-29T05:45:21;3.33;;;2.30;;
7471;SDS011;3777;48.722;8.110;2022-12-29T05:47:48;3.87;;;2.30;;
7471;SDS011;3777;48.722;8.110;2022-12-29T05:50:15;2.77;;;2.30;;
7471;SDS011;3777;48.722;8.110;2022-12-29T05:52:43;2.73;;;2.40;;
7471;SDS011;3777;48.722;8.110;2022-12-29T05:55:10;4.23;;;2.30;;
7471;SDS011;3777;48.722;8.110;2022-12-29T05:57:38;4.70;;;2.40;;
7471;SDS011;3777;48.722;8.110;2022-12-29T06:00:05;3.67;;;2.40;;
7471;SDS011;3777;48.722;8.110;2022-12-29T06:02:33;4.57;;;2.77;;
7471;SDS011;3777;48.722;8.110;2022-12-29T06:05:00;2.67;;;2.40;;
7471;SDS011;3777;48.722;8.110;2022-12-29T06:07:27;2.93;;;2.37;;
7471;SDS011;3777;48.722;8.110;2022-12-29T06:09:55;3.67;;;2.27;;
7471;SDS011;3777;48.722;8.110;2022-12-29T06:12:22;4.43;;;2.43;;
7471;SDS011;3777;48.722;8.110;2022-12-29T06:14:49;3.80;;;2.60;;
7471;SDS011;3777;48.722;8.110;2022-12-29T06:17:16;3.53;;;2.57;;
7471;SDS011;3777;48.722;8.110;2022-12-29T06:19:43;3.93;;;2.40;;
7471;SDS011;3777;48.722;8.110;2022-12-29T06:22:10;3.30;;;2.50;;
7471;SDS011;3777;48.722;8.110;2022-12-29T06:24:38;3.27;;;2.40;;
7471;SDS011;3777;48.722;8.110;2022-12-29T06:27:07;4.00;;;2.53;;
7471;SDS011;3777;48.722;8.110;2022-12-29T06:29:33;3.93;;;2.60;;
7471;SDS011;3777;48.722;8.110;2022-12-29T06:32:02;4.47;;;2.53;;
7471;SDS011;3777;48.722;8.110;2022-12-29T06:34:29;5.40;;;2.70;;
7471;SDS011;3777;48.722;8.110;2022-12-29T06:36:56;3.47;;;2.23;;
7471;SDS011;3777;48.722;8.110;2022-12-29T06:39:23;4.07;;;2.50;;
7471;SDS011;3777;48.722;8.110;2022-12-29T06:41:51;5.27;;;2.67;;
7471;SDS011;3777;48.722;8.110;2022-12-29T06:44:20;3.10;;;2.47;;
7471;SDS011;3777;48.722;8.110;2022-12-29T06:46:47;3.13;;;2.50;;
7471;SDS011;3777;48.722;8.110;2022-12-29T06:49:14;2.60;;;2.33;;
7471;SDS011;3777;48.722;8.110;2022-12-29T06:51:41;3.33;;;2.53;;
7471;SDS011;3777;48.722;8.110;2022-12-29T06:54:08;3.60;;;2.47;;
7471;SDS011;3777;48.722;8.110;2022-12-29T06:56:36;5.43;;;2.67;;
7471;SDS011;3777;48.722;8.110;2022-12-29T06:59:02;2.70;;;2.20;;
7471;SDS011;3777;48.722;8.110;2022-12-29T07:01:31;3.57;;;2.50;;
7471;SDS011;3777;48.722;8.110;2022-12-29T07:03:59;3.83;;;2.50;;
7471;SDS011;3777;48.722;8.110;2022-12-29T07:06:26;3.83;;;2.63;;
7471;SDS011;3777;48.722;8.110;2022-12-29T07:08:53;3.80;;;2.40;;
7471;SDS011;3777;48.722;8.110;2022-12-29T07:11:22;5.13;;;2.60;;
7471;SDS011;3777;48.722;8.110;2022-12-29T07:13:49;2.60;;;2.40;;
7471;SDS011;3777;48.722;8.110;2022-12-29T07:16:16;3.17;;;2.57;;
7471;SDS011;3777;48.722;8.110;2022-12-29T07:18:44;5.63;;;2.60;;
7471;SDS011;3777;48.722;8.110;2022-12-29T07:21:11;3.30;;;2.30;;
7471;SDS011;3777;48.722;8.110;2022-12-29T07:23:38;3.60;;;2.40;;
7471;SDS011;3777;48.722;8.110;2022-12-29T07:26:06;4.23;;;2.70;;
7471;SDS011;3777;48.722;8.110;2022-12-29T07:28:35;5.23;;;2.50;;
7471;SDS011;3777;48.722;8.110;2022-12-29T07:31:03;2.97;;;2.30;;
7471;SDS011;3777;48.722;8.110;2022-12-29T07:33:30;4.03;;;2.77;;
7471;SDS011;3777;48.722;8.110;2022-12-29T07:36:00;4.70;;;2.60;;
7471;SDS011;3777;48.722;8.110;2022-12-29T07:38:27;2.83;;;2.50;;
7471;SDS011;3777;48.722;8.110;2022-12-29T07:40:56;2.63;;;2.30;;
7471;SDS011;3777;48.722;8.110;2022-12-29T07:43:24;3.93;;;2.20;;
7471;SDS011;3777;48.722;8.110;2022-12-29T07:45:51;4.30;;;2.40;;
7471;SDS011;3777;48.722;8.110;2022-12-29T07:48:18;3.57;;;2.60;;
7471;SDS011;3777;48.722;8.110;2022-12-29T07:50:45;3.03;;;2.20;;
7471;SDS011;3777;48.722;8.110;2022-12-29T07:53:13;4.97;;;2.63;;
7471;SDS011;3777;48.722;8.110;2022-12-29T07:55:40;4.33;;;2.50;;
7471;SDS011;3777;48.722;8.110;2022-12-29T07:58:07;3.27;;;2.33;;
7471;SDS011;3777;48.722;8.110;2022-12-29T08:00:34;3.87;;;2.47;;
7471;SDS011;3777;48.722;8.110;2022-12-29T08:03:01;3.43;;;2.57;;
7471;SDS011;3777;48.722;8.110;2022-12-29T08:05:28;3.50;;;2.40;;
7471;SDS011;3777;48.722;8.110;2022-12-29T08:07:56;2.87;;;2.30;;
7471;SDS011;3777;48.722;8.110;2022-12-29T08:10:25;2.90;;;2.13;;
7471;SDS011;3777;48.722;8.110;2022-12-29T08:12:52;4.23;;;2.40;;
7471;SDS011;3777;48.722;8.110;2022-12-29T08:15:19;3.80;;;2.50;;
7471;SDS011;3777;48.722;8.110;2022-12-29T08:17:45;4.77;;;2.40;;
7471;SDS011;3777;48.722;8.110;2022-12-29T08:20:12;2.53;;;2.20;;
7471;SDS011;3777;48.722;8.110;2022-12-29T08:22:39;3.40;;;2.40;;
7471;SDS011;3777;48.722;8.110;2022-12-29T08:25:07;2.97;;;2.20;;
7471;SDS011;3777;48.722;8.110;2022-12-29T08:27:35;3.50;;;2.57;;
7471;SDS011;3777;48.722;8.110;2022-12-29T08:30:03;3.07;;;2.07;;
7471;SDS011;3777;48.722;8.110;2022-12-29T08:32:30;4.10;;;2.47;;
7471;SDS011;3777;48.722;8.110;2022-12-29T08:34:57;4.23;;;2.50;;
7471;SDS011;3777;48.722;8.110;2022-12-29T08:37:25;5.13;;;2.30;;
7471;SDS011;3777;48.722;8.110;2022-12-29T08:39:52;3.20;;;2.20;;
7471;SDS011;3777;48.722;8.110;2022-12-29T08:42:19;4.03;;;2.27;;
7471;SDS011;3777;48.722;8.110;2022-12-29T08:44:48;3.73;;;2.30;;
7471;SDS011;3777;48.722;8.110;2022-12-29T08:47:14;2.63;;;2.10;;
7471;SDS011;3777;48.722;8.110;2022-12-29T08:49:41;3.70;;;2.27;;
7471;SDS011;3777;48.722;8.110;2022-12-29T08:52:08;3.40;;;2.10;;
7471;SDS011;3777;48.722;8.110;2022-12-29T08:54:35;3.63;;;2.20;;
7471;SDS011;3777;48.722;8.110;2022-12-29T08:57:02;4.20;;;2.53;;
7471;SDS011;3777;48.722;8.110;2022-12-29T08:59:29;4.37;;;2.40;;
7471;SDS011;3777;48.722;8.110;2022-12-29T09:01:57;3.00;;;2.10;;
7471;SDS011;3777;48.722;8.110;2022-12-29T09:04:25;3.40;;;2.20;;
7471;SDS011;3777;48.722;8.110;2022-12-29T09:06:52;3.80;;;2.33;;
7471;SDS011;3777;48.722;8.110;2022-12-29T09:09:19;2.53;;;2.27;;
7471;SDS011;3777;48.722;8.110;2022-12-29T09:11:46;4.50;;;2.47;;
7471;SDS011;3777;48.722;8.110;2022-12-29T09:14:13;2.80;;;2.23;;
7471;SDS011;3777;48.722;8.110;2022-12-29T09:16:40;4.67;;;2.60;;
7471;SDS011;3777;48.722;8.110;2022-12-29T09:19:27;3.77;;;2.47;;
7471;SDS011;3777;48.722;8.110;2022-12-29T09:21:54;4.93;;;2.47;;
7471;SDS011;3777;48.722;8.110;2022-12-29T09:24:20;3.03;;;2.37;;
7471;SDS011;3777;48.722;8.110;2022-12-29T09:26:47;4.73;;;2.50;;
7471;SDS011;3777;48.722;8.110;2022-12-29T09:29:14;2.63;;;2.00;;
7471;SDS011;3777;48.722;8.110;2022-12-29T09:31:42;3.03;;;2.13;;
7471;SDS011;3777;48.722;8.110;2022-12-29T09:34:08;3.33;;;2.30;;
7471;SDS011;3777;48.722;8.110;2022-12-29T09:36:37;3.07;;;2.07;;
7471;SDS011;3777;48.722;8.110;2022-12-29T09:39:04;4.43;;;2.40;;
7471;SDS011;3777;48.722;8.110;2022-12-29T09:41:32;3.33;;;2.07;;
7471;SDS011;3777;48.722;8.110;2022-12-29T09:44:07;4.73;;;2.57;;
7471;SDS011;3777;48.722;8.110;2022-12-29T09:46:40;3.00;;;2.23;;
7471;SDS011;3777;48.722;8.110;2022-12-29T09:49:13;4.57;;;2.30;;
7471;SDS011;3777;48.722;8.110;2022-12-29T09:51:49;3.13;;;2.70;;
7471;SDS011;3777;48.722;8.110;2022-12-29T09:54:39;4.27;;;2.57;;
7471;SDS011;3777;48.722;8.110;2022-12-29T09:57:15;3.60;;;2.30;;
7471;SDS011;3777;48.722;8.110;2022-12-29T09:59:46;4.20;;;2.80;;
7471;SDS011;3777;48.722;8.110;2022-12-29T10:02:21;3.60;;;2.10;;
7471;SDS011;3777;48.722;8.110;2022-12-29T10:04:55;2.27;;;2.00;;
7471;SDS011;3777;48.722;8.110;2022-12-29T10:07:26;3.40;;;2.30;;
7471;SDS011;3777;48.722;8.110;2022-12-29T10:10:01;2.70;;;2.27;;
7471;SDS011;3777;48.722;8.110;2022-12-29T10:12:46;5.83;;;2.50;;
7471;SDS011;3777;48.722;8.110;2022-12-29T10:15:27;2.20;;;1.93;;
7471;SDS011;3777;48.722;8.110;2022-12-29T10:18:08;4.33;;;2.30;;
7471;SDS011;3777;48.722;8.110;2022-12-29T10:20:56;4.60;;;2.37;;
7471;SDS011;3777;48.722;8.110;2022-12-29T10:23:28;5.13;;;2.40;;
7471;SDS011;3777;48.722;8.110;2022-12-29T10:25:59;4.37;;;2.23;;
7471;SDS011;3777;48.722;8.110;2022-12-29T10:28:33;3.10;;;2.50;;
7471;SDS011;3777;48.722;8.110;2022-12-29T10:31:02;3.00;;;2.33;;
7471;SDS011;3777;48.722;8.110;2022-12-29T10:33:33;2.57;;;2.00;;
7471;SDS011;3777;48.722;8.110;2022-12-29T10:36:04;3.60;;;2.20;;
7471;SDS011;3777;48.722;8.110;2022-12-29T10:38:42;3.87;;;2.10;;
7471;SDS011;3777;48.722;8.110;2022-12-29T10:41:15;2.90;;;2.40;;
7471;SDS011;3777;48.722;8.110;2022-12-29T10:43:47;2.57;;;2.00;;
7471;SDS011;3777;48.722;8.110;2022-12-29T10:46:17;4.80;;;2.30;;
7471;SDS011;3777;48.722;8.110;2022-12-29T10:48:47;3.67;;;2.27;;
7471;SDS011;3777;48.722;8.110;2022-12-29T10:51:16;4.20;;;2.37;;
7471;SDS011;3777;48.722;8.110;2022-12-29T10:53:49;3.97;;;2.00;;
7471;SDS011;3777;48.722;8.110;2022-12-29T10:56:21;3.73;;;2.10;;
7471;SDS011;3777;48.722;8.110;2022-12-29T10:58:59;2.57;;;1.70;;
7471;SDS011;3777;48.722;8.110;2022-12-29T11:01:36;2.93;;;1.93;;
7471;SDS011;3777;48.722;8.110;2022-12-29T11:04:10;3.80;;;1.70;;
7471;SDS011;3777;48.722;8.110;2022-12-29T11:06:49;2.50;;;1.70;;
7471;SDS011;3777;48.722;8.110;2022-12-29T11:09:19;3.57;;;1.70;;
7471;SDS011;3777;48.722;8.110;2022-12-29T11:11:52;3.10;;;1.87;;
7471;SDS011;3777;48.722;8.110;2022-12-29T11:14:21;4.23;;;1.60;;
7471;SDS011;3777;48.722;8.110;2022-12-29T11:16:56;2.87;;;1.47;;
7471;SDS011;3777;48.722;8.110;2022-12-29T11:19:24;1.50;;;1.40;;
7471;SDS011;3777;48.722;8.110;2022-12-29T11:21:52;1.53;;;1.43;;
7471;SDS011;3777;48.722;8.110;2022-12-29T11:24:22;2.00;;;1.40;;
7471;SDS011;3777;48.722;8.110;2022-12-29T11:26:50;3.30;;;1.47;;
7471;SDS011;3777;48.722;8.110;2022-12-29T11:29:26;1.83;;;1.57;;
7471;SDS011;3777;48.722;8.110;2022-12-29T11:31:54;1.97;;;1.53;;
7471;SDS011;3777;48.722;8.110;2022-12-29T11:34:24;2.50;;;1.43;;
7471;SDS011;3777;48.722;8.110;2022-12-29T11:36:58;1.73;;;1.57;;
7471;SDS011;3777;48.722;8.110;2022-12-29T11:39:32;1.70;;;1.40;;
7471;SDS011;3777;48.722;8.110;2022-12-29T11:42:02;2.23;;;1.70;;
7471;SDS011;3777;48.722;8.110;2022-12-29T11:44:34;1.83;;;1.43;;
7471;SDS011;3777;48.722;8.110;2022-12-29T11:47:03;1.57;;;1.37;;
7471;SDS011;3777;48.722;8.110;2022-12-29T11:49:31;3.47;;;1.50;;
7471;SDS011;3777;48.722;8.110;2022-12-29T11:51:58;1.80;;;1.60;;
7471;SDS011;3777;48.722;8.110;2022-12-29T11:54:27;2.97;;;1.57;;
7471;SDS011;3777;48.722;8.110;2022-12-29T11:57:08;2.80;;;1.90;;
7471;SDS011;3777;48.722;8.110;2022-12-29T11:59:39;2.97;;;1.60;;
7471;SDS011;3777;48.722;8.110;2022-12-29T12:02:22;3.63;;;1.80;;
7471;SDS011;3777;48.722;8.110;2022-12-29T12:05:08;3.80;;;1.90;;
7471;SDS011;3777;48.722;8.110;2022-12-29T12:07:40;1.70;;;1.57;;
7471;SDS011;3777;48.722;8.110;2022-12-29T12:13:04;2.70;;;1.80;;
7471;SDS011;3777;48.722;8.110;2022-12-29T12:15:39;4.57;;;2.43;;
7471;SDS011;3777;48.722;8.110;2022-12-29T12:18:11;2.97;;;2.07;;
7471;SDS011;3777;48.722;8.110;2022-12-29T12:20:44;2.93;;;1.80;;
7471;SDS011;3777;48.722;8.110;2022-12-29T12:23:24;3.83;;;2.00;;
7471;SDS011;3777;48.722;8.110;2022-12-29T12:25:59;2.67;;;2.17;;
7471;SDS011;3777;48.722;8.110;2022-12-29T12:28:34;3.07;;;2.27;;
7471;SDS011;3777;48.722;8.110;2022-12-29T12:31:06;2.87;;;2.30;;
7471;SDS011;3777;48.722;8.110;2022-12-29T12:33:44;5.13;;;2.67;;
7471;SDS011;3777;48.722;8.110;2022-12-29T12:36:22;3.70;;;2.60;;
7471;SDS011;3777;48.722;8.110;2022-12-29T12:39:11;3.43;;;2.53;;
7471;SDS011;3777;48.722;8.110;2022-12-29T12:41:48;2.77;;;2.30;;
7471;SDS011;3777;48.722;8.110;2022-12-29T12:44:24;3.53;;;2.40;;
7471;SDS011;3777;48.722;8.110;2022-12-29T12:47:03;3.37;;;2.50;;
7471;SDS011;3777;48.722;8.110;2022-12-29T12:49:52;3.60;;;2.20;;
7471;SDS011;3777;48.722;8.110;2022-12-29T12:52:39;5.50;;;2.30;;
7471;SDS011;3777;48.722;8.110;2022-12-29T12:55:28;3.50;;;2.23;;
7471;SDS011;3777;48.722;8.110;2022-12-29T12:58:04;2.90;;;2.10;;
7471;SDS011;3777;48.722;8.110;2022-12-29T13:00:46;4.87;;;2.40;;
7471;SDS011;3777;48.722;8.110;2022-12-29T13:03:24;3.53;;;2.20;;
7471;SDS011;3777;48.722;8.110;2022-12-29T13:06:03;4.97;;;2.47;;
7471;SDS011;3777;48.722;8.110;2022-12-29T13:11:44;3.83;;;2.50;;
7471;SDS011;3777;48.722;8.110;2022-12-29T13:14:24;3.87;;;2.57;;
7471;SDS011;3777;48.722;8.110;2022-12-29T13:17:06;5.67;;;2.67;;
7471;SDS011;3777;48.722;8.110;2022-12-29T13:19:39;5.00;;;2.90;;
7471;SDS011;3777;48.722;8.110;2022-12-29T13:22:08;3.40;;;2.90;;
7471;SDS011;3777;48.722;8.110;2022-12-29T13:24:47;4.03;;;3.00;;
7471;SDS011;3777;48.722;8.110;2022-12-29T13:27:23;3.57;;;2.70;;
7471;SDS011;3777;48.722;8.110;2022-12-29T13:30:00;6.53;;;3.97;;
7471;SDS011;3777;48.722;8.110;2022-12-29T13:32:41;6.63;;;5.60;;
7471;SDS011;3777;48.722;8.110;2022-12-29T13:35:22;22.30;;;18.30;;
7471;SDS011;3777;48.722;8.110;2022-12-29T13:37:57;8.47;;;5.33;;
7471;SDS011;3777;48.722;8.110;2022-12-29T13:40:28;4.53;;;3.83;;
7471;SDS011;3777;48.722;8.110;2022-12-29T13:43:03;5.00;;;4.30;;
7471;SDS011;3777;48.722;8.110;2022-12-29T13:45:31;3.83;;;3.00;;
7471;SDS011;3777;48.722;8.110;2022-12-29T13:48:03;4.90;;;3.80;;
7471;SDS011;3777;48.722;8.110;2022-12-29T13:50:35;3.53;;;2.90;;
7471;SDS011;3777;48.722;8.110;2022-12-29T13:53:06;5.03;;;3.53;;
7471;SDS011;3777;48.722;8.110;2022-12-29T13:55:45;4.23;;;2.70;;
7471;SDS011;3777;48.722;8.110;2022-12-29T13:58:18;4.17;;;2.47;;
7471;SDS011;3777;48.722;8.110;2022-12-29T14:00:54;3.03;;;2.70;;
7471;SDS011;3777;48.722;8.110;2022-12-29T14:03:33;7.17;;;5.10;;
7471;SDS011;3777;48.722;8.110;2022-12-29T14:06:12;5.20;;;3.93;;
7471;SDS011;3777;48.722;8.110;2022-12-29T14:08:49;6.53;;;4.40;;
7471;SDS011;3777;48.722;8.110;2022-12-29T14:11:21;7.00;;;4.50;;
7471;SDS011;3777;48.722;8.110;2022-12-29T14:13:51;5.07;;;3.60;;
7471;SDS011;3777;48.722;8.110;2022-12-29T14:16:24;7.17;;;5.00;;
7471;SDS011;3777;48.722;8.110;2022-12-29T14:19:11;9.33;;;5.80;;
7471;SDS011;3777;48.722;8.110;2022-12-29T14:21:49;9.43;;;5.00;;
7471;SDS011;3777;48.722;8.110;2022-12-29T14:33:13;11.90;;;5.60;;
7471;SDS011;3777;48.722;8.110;2022-12-29T14:35:43;4.20;;;3.20;;
7471;SDS011;3777;48.722;8.110;2022-12-29T14:38:18;7.90;;;4.50;;
7471;SDS011;3777;48.722;8.110;2022-12-29T14:40:51;9.77;;;5.60;;
7471;SDS011;3777;48.722;8.110;2022-12-29T14:43:23;18.90;;;11.27;;
7471;SDS011;3777;48.722;8.110;2022-12-29T14:45:53;16.43;;;8.10;;
7471;SDS011;3777;48.722;8.110;2022-12-29T14:48:31;23.23;;;10.90;;
7471;SDS011;3777;48.722;8.110;2022-12-29T14:51:18;12.90;;;6.87;;
7471;SDS011;3777;48.722;8.110;2022-12-29T14:53:53;13.90;;;10.00;;
7471;SDS011;3777;48.722;8.110;2022-12-29T14:56:23;10.83;;;7.27;;
7471;SDS011;3777;48.722;8.110;2022-12-29T14:58:52;7.67;;;5.70;;
7471;SDS011;3777;48.722;8.110;2022-12-29T15:01:26;15.07;;;10.53;;
7471;SDS011;3777;48.722;8.110;2022-12-29T15:04:03;9.90;;;6.83;;
7471;SDS011;3777;48.722;8.110;2022-12-29T15:06:41;13.97;;;9.53;;
7471;SDS011;3777;48.722;8.110;2022-12-29T15:09:12;10.97;;;6.17;;
7471;SDS011;3777;48.722;8.110;2022-12-29T15:11:49;5.67;;;3.63;;
7471;SDS011;3777;48.722;8.110;2022-12-29T15:14:28;3.40;;;2.20;;
7471;SDS011;3777;48.722;8.110;2022-12-29T15:16:57;6.33;;;3.17;;
7471;SDS011;3777;48.722;8.110;2022-12-29T15:19:25;4.00;;;2.50;;
7471;SDS011;3777;48.722;8.110;2022-12-29T15:21:54;7.93;;;5.33;;
7471;SDS011;3777;48.722;8.110;2022-12-29T15:24:23;9.40;;;8.57;;
7471;SDS011;3777;48.722;8.110;2022-12-29T15:26:51;4.33;;;3.30;;
7471;SDS011;3777;48.722;8.110;2022-12-29T15:29:34;2.83;;;2.03;;
7471;SDS011;3777;48.722;8.110;2022-12-29T15:32:14;3.60;;;2.50;;
7471;SDS011;3777;48.722;8.110;2022-12-29T15:34:44;3.27;;;2.00;;
7471;SDS011;3777;48.722;8.110;2022-12-29T15:37:18;2.80;;;2.00;;
7471;SDS011;3777;48.722;8.110;2022-12-29T15:39:47;2.77;;;2.30;;
7471;SDS011;3777;48.722;8.110;2022-12-29T15:45:14;3.77;;;2.60;;
7471;SDS011;3777;48.722;8.110;2022-12-29T15:47:42;4.50;;;2.30;;
7471;SDS011;3777;48.722;8.110;2022-12-29T15:50:15;3.80;;;2.80;;
7471;SDS011;3777;48.722;8.110;2022-12-29T15:52:49;3.53;;;2.10;;
7471;SDS011;3777;48.722;8.110;2022-12-29T15:55:21;3.30;;;1.80;;
7471;SDS011;3777;48.722;8.110;2022-12-29T15:57:58;4.20;;;1.60;;
7471;SDS011;3777;48.722;8.110;2022-12-29T16:00:27;4.50;;;1.70;;
7471;SDS011;3777;48.722;8.110;2022-12-29T16:02:55;4.23;;;1.60;;